Time,TemperatureF,DewpointF,PressureIn,WindDirection,WindDirectionDegrees,WindSpeedMPH,WindSpeedGustMPH,Humidity,HourlyPrecipIn,Conditions,Clouds,dailyrainin,SolarRadiationWatts/m^2,SoftwareType,DateUTC
2013-01-31 00:03:00,-2.9,-7.8,30.01,West,266,5.0,12.0,79,0.00,,,0.00,0.0,meteohub,2013-01-31 06:03:00,
2013-01-31 00:08:00,-2.9,-7.8,30.01,WNW,288,5.0,12.0,79,0.00,,,0.00,0.0,meteohub,2013-01-31 06:08:00,
2013-01-31 00:13:00,-3.1,-8.0,30.01,NW,308,4.0,12.0,79,0.00,,,0.00,0.0,meteohub,2013-01-31 06:13:00,
2013-01-31 00:18:00,-3.3,-8.1,30.01,WSW,239,11.0,12.0,79,0.00,,,0.00,0.0,meteohub,2013-01-31 06:18:00,
2013-01-31 00:23:00,-3.3,-8.1,30.01,WSW,256,7.0,12.0,79,0.00,,,0.00,0.0,meteohub,2013-01-31 06:23:00,
2013-01-31 00:28:00,-3.3,-8.1,30.01,West,264,6.0,11.0,79,0.00,,,0.00,0.0,meteohub,2013-01-31 06:28:00,
2013-01-31 00:33:00,-3.3,-8.0,30.01,WSW,245,3.0,11.0,80,0.00,,,0.00,0.0,meteohub,2013-01-31 06:33:00,
2013-01-31 00:38:00,-3.5,-8.1,30.01,West,275,5.0,10.0,80,0.00,,,0.00,0.0,meteohub,2013-01-31 06:38:00,
2013-01-31 00:43:00,-3.5,-8.1,30.02,West,261,5.0,10.0,80,0.00,,,0.00,0.0,meteohub,2013-01-31 06:43:00,
2013-01-31 00:48:00,-3.5,-8.1,30.02,West,277,9.0,14.0,80,0.00,,,0.00,0.0,meteohub,2013-01-31 06:48:00,
2013-01-31 00:53:00,-3.5,-8.1,30.02,SW,229,8.0,14.0,80,0.00,,,0.00,0.0,meteohub,2013-01-31 06:53:00,
2013-01-31 00:58:00,-3.5,-8.3,30.02,West,267,10.0,12.0,79,0.00,,,0.00,0.0,meteohub,2013-01-31 06:58:00,
2013-01-31 01:04:00,-3.6,-8.5,30.02,West,279,7.0,12.0,79,0.00,,,0.00,0.0,meteohub,2013-01-31 07:04:00,
2013-01-31 01:09:00,-3.6,-8.5,30.02,West,272,5.0,13.0,79,0.00,,,0.00,0.0,meteohub,2013-01-31 07:09:00,
2013-01-31 01:14:00,-3.6,-8.5,30.02,WSW,254,6.0,13.0,79,0.00,,,0.00,0.0,meteohub,2013-01-31 07:14:00,
2013-01-31 01:19:00,-3.6,-8.5,30.02,West,265,5.0,13.0,79,0.00,,,0.00,0.0,meteohub,2013-01-31 07:19:00,
2013-01-31 01:24:00,-3.6,-8.5,30.02,West,279,4.0,12.0,79,0.00,,,0.00,0.0,meteohub,2013-01-31 07:24:00,
2013-01-31 01:29:00,-3.6,-8.5,30.03,West,271,7.0,12.0,79,0.00,,,0.00,0.0,meteohub,2013-01-31 07:29:00,
2013-01-31 01:34:00,-3.6,-8.3,30.03,West,267,6.0,12.0,80,0.00,,,0.00,0.0,meteohub,2013-01-31 07:34:00,
2013-01-31 01:39:00,-3.6,-8.3,30.03,West,279,4.0,11.0,80,0.00,,,0.00,0.0,meteohub,2013-01-31 07:39:00,
2013-01-31 01:44:00,-3.6,-8.3,30.03,West,278,5.0,11.0,80,0.00,,,0.00,0.0,meteohub,2013-01-31 07:44:00,
2013-01-31 01:49:00,-3.6,-8.3,30.03,West,266,5.0,11.0,80,0.00,,,0.00,0.0,meteohub,2013-01-31 07:49:00,
2013-01-31 01:54:00,-3.6,-8.3,30.04,WSW,258,7.0,11.0,80,0.00,,,0.00,0.0,meteohub,2013-01-31 07:54:00,
2013-01-31 01:59:00,-3.5,-8.1,30.04,WSW,254,6.0,11.0,80,0.00,,,0.00,0.0,meteohub,2013-01-31 07:59:00,
2013-01-31 02:04:00,-3.6,-8.3,30.04,West,261,4.0,10.0,80,0.00,,,0.00,0.0,meteohub,2013-01-31 08:04:00,
2013-01-31 02:09:00,-3.6,-8.3,30.04,West,269,8.0,12.0,80,0.00,,,0.00,0.0,meteohub,2013-01-31 08:09:00,
2013-01-31 02:14:00,-3.6,-8.3,30.04,West,279,6.0,12.0,80,0.00,,,0.00,0.0,meteohub,2013-01-31 08:14:00,
2013-01-31 02:19:00,-3.6,-8.5,30.04,WNW,282,5.0,12.0,79,0.00,,,0.00,0.0,meteohub,2013-01-31 08:19:00,
2013-01-31 02:24:00,-3.8,-8.7,30.05,West,269,14.0,14.0,79,0.00,,,0.00,0.0,meteohub,2013-01-31 08:24:00,
2013-01-31 02:29:00,-3.8,-8.5,30.05,West,266,6.0,12.0,80,0.00,,,0.00,0.0,meteohub,2013-01-31 08:29:00,
2013-01-31 02:34:00,-4.2,-9.0,30.05,West,275,6.0,14.0,79,0.00,,,0.00,0.0,meteohub,2013-01-31 08:34:00,
2013-01-31 02:39:00,-4.4,-9.2,30.05,WSW,257,4.0,14.0,79,0.00,,,0.00,0.0,meteohub,2013-01-31 08:39:00,
2013-01-31 02:44:00,-4.4,-9.2,30.05,West,275,5.0,13.0,79,0.00,,,0.00,0.0,meteohub,2013-01-31 08:44:00,
2013-01-31 02:49:00,-4.5,-9.4,30.06,West,269,3.0,12.0,79,0.00,,,0.00,0.0,meteohub,2013-01-31 08:49:00,
2013-01-31 02:54:00,-4.7,-9.6,30.06,West,263,5.0,8.0,79,0.00,,,0.00,0.0,meteohub,2013-01-31 08:54:00,
2013-01-31 02:59:00,-4.9,-9.8,30.06,WSW,253,7.0,8.0,79,0.00,,,0.00,0.0,meteohub,2013-01-31 08:59:00,
2013-01-31 03:04:00,-5.1,-9.9,30.06,West,265,9.0,9.0,79,0.00,,,0.00,0.0,meteohub,2013-01-31 09:04:00,
2013-01-31 03:09:00,-5.3,-10.3,30.06,West,275,3.0,9.0,78,0.00,,,0.00,0.0,meteohub,2013-01-31 09:09:00,
2013-01-31 03:14:00,-5.4,-10.3,30.06,WNW,295,2.0,10.0,79,0.00,,,0.00,0.0,meteohub,2013-01-31 09:14:00,
2013-01-31 03:19:00,-5.4,-10.3,30.06,West,269,5.0,10.0,79,0.00,,,0.00,0.0,meteohub,2013-01-31 09:19:00,
2013-01-31 03:24:00,-5.4,-10.3,30.06,WNW,293,6.0,11.0,79,0.00,,,0.00,0.0,meteohub,2013-01-31 09:24:00,
2013-01-31 03:29:00,-5.6,-10.5,30.06,WSW,245,7.0,11.0,79,0.00,,,0.00,0.0,meteohub,2013-01-31 09:29:00,
2013-01-31 03:34:00,-5.6,-10.5,30.06,WSW,257,3.0,12.0,79,0.00,,,0.00,0.0,meteohub,2013-01-31 09:34:00,
2013-01-31 03:39:00,-5.8,-10.7,30.07,West,259,8.0,12.0,79,0.00,,,0.00,0.0,meteohub,2013-01-31 09:39:00,
2013-01-31 03:44:00,-5.8,-10.7,30.07,West,260,5.0,12.0,79,0.00,,,0.00,0.0,meteohub,2013-01-31 09:44:00,
2013-01-31 03:49:00,-6.0,-10.5,30.07,SW,235,6.0,11.0,80,0.00,,,0.00,0.0,meteohub,2013-01-31 09:49:00,
2013-01-31 03:54:00,-6.0,-10.5,30.07,SW,233,5.0,11.0,80,0.00,,,0.00,0.0,meteohub,2013-01-31 09:54:00,
2013-01-31 03:59:00,-6.2,-10.7,30.08,West,270,5.0,10.0,80,0.00,,,0.00,0.0,meteohub,2013-01-31 09:59:00,
2013-01-31 04:05:00,-6.2,-10.7,30.08,WNW,284,4.0,12.0,80,0.00,,,0.00,0.0,meteohub,2013-01-31 10:05:00,
2013-01-31 04:10:00,-6.2,-11.0,30.09,West,266,2.0,12.0,79,0.00,,,0.00,0.0,meteohub,2013-01-31 10:10:00,
2013-01-31 04:15:00,-6.2,-11.0,30.09,West,269,4.0,12.0,79,0.00,,,0.00,0.0,meteohub,2013-01-31 10:15:00,
2013-01-31 04:20:00,-6.3,-11.2,30.09,WNW,285,4.0,9.0,79,0.00,,,0.00,0.0,meteohub,2013-01-31 10:20:00,
2013-01-31 04:25:00,-6.5,-11.4,30.09,West,281,6.0,12.0,79,0.00,,,0.00,0.0,meteohub,2013-01-31 10:25:00,
2013-01-31 04:30:00,-6.5,-11.4,30.10,West,260,2.0,12.0,79,0.00,,,0.00,0.0,meteohub,2013-01-31 10:30:00,
2013-01-31 04:35:00,-6.9,-11.7,30.10,West,265,4.0,12.0,79,0.00,,,0.00,0.0,meteohub,2013-01-31 10:35:00,
2013-01-31 04:40:00,-6.9,-11.9,30.10,WSW,247,4.0,13.0,78,0.00,,,0.00,0.0,meteohub,2013-01-31 10:40:00,
2013-01-31 04:45:00,-7.1,-11.9,30.11,West,266,8.0,13.0,79,0.00,,,0.00,0.0,meteohub,2013-01-31 10:45:00,
2013-01-31 04:50:00,-7.2,-12.3,30.11,WNW,288,5.0,11.0,78,0.00,,,0.00,0.0,meteohub,2013-01-31 10:50:00,
2013-01-31 04:55:00,-7.4,-12.5,30.11,NW,306,3.0,12.0,78,0.00,,,0.00,0.0,meteohub,2013-01-31 10:55:00,
2013-01-31 05:00:00,-7.8,-12.8,30.11,WSW,249,3.0,12.0,78,0.00,,,0.00,0.0,meteohub,2013-01-31 11:00:00,
2013-01-31 05:05:00,-8.0,-13.0,30.11,West,277,5.0,10.0,78,0.00,,,0.00,0.0,meteohub,2013-01-31 11:05:00,
2013-01-31 05:10:00,-8.0,-13.0,30.11,WNW,290,3.0,10.0,78,0.00,,,0.00,0.0,meteohub,2013-01-31 11:10:00,
2013-01-31 05:15:00,-8.1,-13.2,30.11,West,281,2.0,10.0,78,0.00,,,0.00,0.0,meteohub,2013-01-31 11:15:00,
2013-01-31 05:20:00,-8.3,-13.5,30.12,WSW,257,7.0,11.0,77,0.00,,,0.00,0.0,meteohub,2013-01-31 11:20:00,
2013-01-31 05:25:00,-8.7,-13.9,30.12,WSW,257,5.0,11.0,77,0.00,,,0.00,0.0,meteohub,2013-01-31 11:25:00,
2013-01-31 05:30:00,-8.9,-14.1,30.12,WSW,252,5.0,11.0,77,0.00,,,0.00,0.0,meteohub,2013-01-31 11:30:00,
2013-01-31 05:35:00,-8.9,-14.1,30.12,WSW,251,10.0,11.0,77,0.00,,,0.00,0.0,meteohub,2013-01-31 11:35:00,
2013-01-31 05:40:00,-9.0,-14.3,30.13,WSW,243,6.0,11.0,77,0.00,,,0.00,0.0,meteohub,2013-01-31 11:40:00,
2013-01-31 05:45:00,-9.0,-14.3,30.13,NW,308,3.0,10.0,77,0.00,,,0.00,0.0,meteohub,2013-01-31 11:45:00,
2013-01-31 05:50:00,-9.2,-14.4,30.13,West,276,5.0,9.0,77,0.00,,,0.00,0.0,meteohub,2013-01-31 11:50:00,
2013-01-31 05:55:00,-9.2,-14.4,30.14,WSW,254,5.0,11.0,77,0.00,,,0.00,0.0,meteohub,2013-01-31 11:55:00,
2013-01-31 06:00:00,-9.4,-14.6,30.14,West,279,5.0,11.0,77,0.00,,,0.00,0.0,meteohub,2013-01-31 12:00:00,
2013-01-31 06:05:00,-9.6,-14.8,30.15,West,279,5.0,13.0,77,0.00,,,0.00,0.0,meteohub,2013-01-31 12:05:00,
2013-01-31 06:10:00,-9.6,-14.8,30.15,WNW,282,4.0,13.0,77,0.00,,,0.00,0.0,meteohub,2013-01-31 12:10:00,
2013-01-31 06:15:00,-9.8,-15.0,30.16,WSW,248,6.0,13.0,77,0.00,,,0.00,0.0,meteohub,2013-01-31 12:15:00,
2013-01-31 06:20:00,-9.8,-15.0,30.16,WSW,247,8.0,9.0,77,0.00,,,0.00,0.0,meteohub,2013-01-31 12:20:00,
2013-01-31 06:25:00,-9.8,-15.0,30.16,NW,310,4.0,9.0,77,0.00,,,0.00,0.0,meteohub,2013-01-31 12:25:00,
2013-01-31 06:30:00,-9.9,-15.2,30.17,West,278,2.0,10.0,77,0.00,,,0.00,0.0,meteohub,2013-01-31 12:30:00,
2013-01-31 06:35:00,-9.9,-15.2,30.17,WSW,258,9.0,11.0,77,0.00,,,0.00,0.0,meteohub,2013-01-31 12:35:00,
2013-01-31 06:41:00,-9.9,-15.2,30.17,SW,236,5.0,11.0,77,0.00,,,0.00,0.0,meteohub,2013-01-31 12:41:00,
2013-01-31 06:46:00,-9.9,-15.2,30.17,West,281,1.0,11.0,77,0.00,,,0.00,0.0,meteohub,2013-01-31 12:46:00,
2013-01-31 06:51:00,-9.9,-15.2,30.17,West,269,6.0,11.0,77,0.00,,,0.00,0.0,meteohub,2013-01-31 12:51:00,
2013-01-31 06:56:00,-9.9,-15.2,30.18,West,274,5.0,12.0,77,0.00,,,0.00,0.0,meteohub,2013-01-31 12:56:00,
2013-01-31 07:01:00,-9.9,-15.2,30.18,WNW,282,5.0,12.0,77,0.00,,,0.00,0.0,meteohub,2013-01-31 13:01:00,
2013-01-31 07:06:00,-9.9,-15.2,30.18,West,269,8.0,10.0,77,0.00,,,0.00,0.0,meteohub,2013-01-31 13:06:00,
2013-01-31 07:11:00,-9.9,-15.2,30.19,West,262,5.0,11.0,77,0.00,,,0.00,0.0,meteohub,2013-01-31 13:11:00,
2013-01-31 07:16:00,-10.1,-15.3,30.19,West,259,3.0,11.0,77,0.00,,,0.00,0.0,meteohub,2013-01-31 13:16:00,
2013-01-31 07:21:00,-10.1,-15.3,30.20,West,264,10.0,14.0,77,0.00,,,0.00,0.0,meteohub,2013-01-31 13:21:00,
2013-01-31 07:26:00,-10.3,-15.5,30.20,West,274,5.0,14.0,77,0.00,,,0.00,0.0,meteohub,2013-01-31 13:26:00,
2013-01-31 07:31:00,-10.5,-15.9,30.20,West,277,7.0,12.0,76,0.00,,,0.00,0.0,meteohub,2013-01-31 13:31:00,
2013-01-31 07:36:00,-10.7,-16.1,30.20,WNW,282,8.0,11.0,76,0.00,,,0.00,0.0,meteohub,2013-01-31 13:36:00,
2013-01-31 07:41:00,-10.7,-16.1,30.21,West,269,6.0,11.0,76,0.00,,,0.00,0.0,meteohub,2013-01-31 13:41:00,
2013-01-31 07:46:00,-10.8,-16.2,30.21,WSW,255,4.0,11.0,76,0.00,,,0.00,5.0,meteohub,2013-01-31 13:46:00,
2013-01-31 07:51:00,-10.8,-16.2,30.22,West,276,2.0,11.0,76,0.00,,,0.00,7.0,meteohub,2013-01-31 13:51:00,
2013-01-31 07:56:00,-10.8,-16.2,30.22,West,274,4.0,11.0,76,0.00,,,0.00,9.0,meteohub,2013-01-31 13:56:00,
2013-01-31 08:01:00,-10.8,-16.1,30.22,West,259,7.0,11.0,77,0.00,,,0.00,14.0,meteohub,2013-01-31 14:01:00,
2013-01-31 08:06:00,-10.8,-16.1,30.22,West,274,9.0,10.0,77,0.00,,,0.00,21.0,meteohub,2013-01-31 14:06:00,
2013-01-31 08:11:00,-10.8,-16.1,30.22,WSW,250,6.0,12.0,77,0.00,,,0.00,30.0,meteohub,2013-01-31 14:11:00,
2013-01-31 08:16:00,-10.8,-16.1,30.22,West,265,8.0,12.0,77,0.00,,,0.00,33.0,meteohub,2013-01-31 14:16:00,
2013-01-31 08:21:00,-10.8,-16.1,30.22,West,265,6.0,12.0,77,0.00,,,0.00,32.0,meteohub,2013-01-31 14:21:00,
2013-01-31 08:26:00,-10.7,-15.9,30.23,West,267,8.0,12.0,77,0.00,,,0.00,39.0,meteohub,2013-01-31 14:26:00,
2013-01-31 08:31:00,-10.7,-15.9,30.23,WNW,284,6.0,15.0,77,0.00,,,0.00,42.0,meteohub,2013-01-31 14:31:00,
2013-01-31 08:36:00,-10.7,-15.9,30.24,West,261,9.0,15.0,77,0.00,,,0.00,51.0,meteohub,2013-01-31 14:36:00,
2013-01-31 08:41:00,-10.5,-15.7,30.24,WSW,256,8.0,15.0,77,0.00,,,0.00,76.0,meteohub,2013-01-31 14:41:00,
2013-01-31 08:46:00,-10.1,-15.2,30.24,West,273,8.0,15.0,78,0.00,,,0.00,88.0,meteohub,2013-01-31 14:46:00,
2013-01-31 08:51:00,-9.9,-15.2,30.25,West,261,7.0,14.0,77,0.00,,,0.00,74.0,meteohub,2013-01-31 14:51:00,
2013-01-31 08:56:00,-9.9,-15.2,30.25,WNW,288,6.0,14.0,77,0.00,,,0.00,72.0,meteohub,2013-01-31 14:56:00,
2013-01-31 09:02:00,-9.9,-15.2,30.25,West,274,7.0,14.0,77,0.00,,,0.00,70.0,meteohub,2013-01-31 15:02:00,
2013-01-31 09:07:00,-9.8,-14.8,30.25,West,259,8.0,14.0,78,0.00,,,0.00,76.0,meteohub,2013-01-31 15:07:00,
2013-01-31 09:12:00,-9.8,-14.8,30.26,WSW,257,7.0,14.0,78,0.00,,,0.00,81.0,meteohub,2013-01-31 15:12:00,
2013-01-31 09:17:00,-9.6,-14.6,30.26,West,259,5.0,14.0,78,0.00,,,0.00,84.0,meteohub,2013-01-31 15:17:00,
2013-01-31 09:22:00,-9.4,-14.4,30.26,WNW,282,6.0,14.0,78,0.00,,,0.00,90.0,meteohub,2013-01-31 15:22:00,
2013-01-31 09:27:00,-9.0,-14.1,30.27,West,261,5.0,14.0,78,0.00,,,0.00,90.0,meteohub,2013-01-31 15:27:00,
2013-01-31 09:32:00,-9.0,-14.1,30.27,West,271,3.0,15.0,78,0.00,,,0.00,98.0,meteohub,2013-01-31 15:32:00,
2013-01-31 09:37:00,-8.9,-13.9,30.28,West,281,6.0,15.0,78,0.00,,,0.00,86.0,meteohub,2013-01-31 15:37:00,
2013-01-31 09:42:00,-8.9,-13.9,30.28,West,281,6.0,16.0,78,0.00,,,0.00,113.0,meteohub,2013-01-31 15:42:00,
2013-01-31 09:47:00,-8.7,-13.7,30.28,West,266,7.0,16.0,78,0.00,,,0.00,137.0,meteohub,2013-01-31 15:47:00,
2013-01-31 09:52:00,-8.3,-13.4,30.29,WNW,284,7.0,16.0,78,0.00,,,0.00,134.0,meteohub,2013-01-31 15:52:00,
2013-01-31 09:57:00,-8.1,-13.2,30.29,WSW,250,5.0,16.0,78,0.00,,,0.00,155.0,meteohub,2013-01-31 15:57:00,
2013-01-31 10:02:00,-8.0,-13.0,30.29,WSW,256,10.0,16.0,78,0.00,,,0.00,156.0,meteohub,2013-01-31 16:02:00,
2013-01-31 10:07:00,-7.8,-12.8,30.29,West,269,6.0,16.0,78,0.00,,,0.00,178.0,meteohub,2013-01-31 16:07:00,
2013-01-31 10:12:00,-7.8,-12.8,30.30,WSW,240,8.0,15.0,78,0.00,,,0.00,172.0,meteohub,2013-01-31 16:12:00,
2013-01-31 10:17:00,-7.8,-13.0,30.30,West,279,7.0,15.0,77,0.00,,,0.00,188.0,meteohub,2013-01-31 16:17:00,
2013-01-31 10:22:00,-7.4,-12.5,30.30,West,279,9.0,17.0,78,0.00,,,0.00,192.0,meteohub,2013-01-31 16:22:00,
2013-01-31 10:27:00,-7.6,-12.6,30.30,West,262,6.0,17.0,78,0.00,,,0.00,178.0,meteohub,2013-01-31 16:27:00,
2013-01-31 10:32:00,-7.4,-12.5,30.30,West,266,10.0,17.0,78,0.00,,,0.00,174.0,meteohub,2013-01-31 16:32:00,
2013-01-31 10:37:00,-7.4,-12.5,30.31,North,350,5.0,15.0,78,0.00,,,0.00,188.0,meteohub,2013-01-31 16:37:00,
2013-01-31 10:42:00,-7.4,-12.5,30.31,WNW,293,3.0,14.0,78,0.00,,,0.00,183.0,meteohub,2013-01-31 16:42:00,
2013-01-31 10:47:00,-7.2,-12.3,30.32,WNW,286,7.0,14.0,78,0.00,,,0.00,197.0,meteohub,2013-01-31 16:47:00,
2013-01-31 10:52:00,-7.1,-12.1,30.32,West,275,8.0,14.0,78,0.00,,,0.00,185.0,meteohub,2013-01-31 16:52:00,
2013-01-31 10:57:00,-7.1,-12.3,30.32,West,267,13.0,15.0,77,0.00,,,0.00,174.0,meteohub,2013-01-31 16:57:00,
2013-01-31 11:02:00,-7.1,-12.3,30.32,West,268,12.0,15.0,77,0.00,,,0.00,169.0,meteohub,2013-01-31 17:02:00,
2013-01-31 11:07:00,-7.1,-12.3,30.33,West,265,7.0,16.0,77,0.00,,,0.00,199.0,meteohub,2013-01-31 17:07:00,
2013-01-31 11:12:00,-6.7,-11.9,30.33,WSW,253,7.0,16.0,77,0.00,,,0.00,246.0,meteohub,2013-01-31 17:12:00,
2013-01-31 11:17:00,-6.5,-12.1,30.33,WSW,252,5.0,16.0,76,0.00,,,0.00,236.0,meteohub,2013-01-31 17:17:00,
2013-01-31 11:22:00,-6.3,-11.9,30.33,WSW,255,10.0,16.0,76,0.00,,,0.00,204.0,meteohub,2013-01-31 17:22:00,
2013-01-31 11:27:00,-6.5,-12.1,30.33,WSW,246,5.0,16.0,76,0.00,,,0.00,176.0,meteohub,2013-01-31 17:27:00,
2013-01-31 11:32:00,-6.3,-11.9,30.33,West,275,7.0,15.0,76,0.00,,,0.00,237.0,meteohub,2013-01-31 17:32:00,
2013-01-31 11:37:00,-6.5,-12.1,30.33,West,269,6.0,15.0,76,0.00,,,0.00,188.0,meteohub,2013-01-31 17:37:00,
2013-01-31 11:42:00,-6.5,-12.1,30.34,West,272,5.0,17.0,76,0.00,,,0.00,197.0,meteohub,2013-01-31 17:42:00,
2013-01-31 11:47:00,-6.3,-11.9,30.34,NW,315,12.0,17.0,76,0.00,,,0.00,258.0,meteohub,2013-01-31 17:47:00,
2013-01-31 11:52:00,-6.3,-12.1,30.34,WNW,302,9.0,20.0,75,0.00,,,0.00,265.0,meteohub,2013-01-31 17:52:00,
2013-01-31 11:57:00,-5.8,-11.2,30.34,WNW,291,5.0,20.0,77,0.00,,,0.00,369.0,meteohub,2013-01-31 17:57:00,
2013-01-31 12:02:00,-6.2,-11.9,30.34,West,267,4.0,20.0,75,0.00,,,0.00,299.0,meteohub,2013-01-31 18:02:00,
2013-01-31 12:07:00,-6.3,-12.1,30.35,WSW,244,7.0,15.0,75,0.00,,,0.00,276.0,meteohub,2013-01-31 18:07:00,
2013-01-31 12:12:00,-6.3,-12.1,30.35,West,275,12.0,15.0,75,0.00,,,0.00,429.0,meteohub,2013-01-31 18:12:00,
2013-01-31 12:17:00,-6.2,-11.9,30.35,WNW,302,4.0,17.0,75,0.00,,,0.00,332.0,meteohub,2013-01-31 18:17:00,
2013-01-31 12:22:00,-6.2,-12.3,30.35,WSW,252,8.0,17.0,74,0.00,,,0.00,243.0,meteohub,2013-01-31 18:22:00,
2013-01-31 12:27:00,-6.0,-12.1,30.35,WSW,252,8.0,17.0,74,0.00,,,0.00,287.0,meteohub,2013-01-31 18:27:00,
2013-01-31 12:32:00,-6.0,-12.1,30.36,West,265,8.0,17.0,74,0.00,,,0.00,236.0,meteohub,2013-01-31 18:32:00,
2013-01-31 12:37:00,-5.6,-11.6,30.36,West,273,10.0,17.0,75,0.00,,,0.00,408.0,meteohub,2013-01-31 18:37:00,
2013-01-31 12:42:00,-5.8,-11.7,30.35,West,269,8.0,17.0,75,0.00,,,0.00,320.0,meteohub,2013-01-31 18:42:00,
2013-01-31 12:47:00,-6.0,-12.1,30.36,West,265,7.0,15.0,74,0.00,,,0.00,422.0,meteohub,2013-01-31 18:47:00,
2013-01-31 12:52:00,-5.6,-11.7,30.36,West,273,5.0,18.0,74,0.00,,,0.00,374.0,meteohub,2013-01-31 18:52:00,
2013-01-31 12:57:00,-5.4,-11.9,30.36,WSW,257,10.0,18.0,73,0.00,,,0.00,241.0,meteohub,2013-01-31 18:57:00,
2013-01-31 13:02:00,-5.6,-12.3,30.36,WSW,257,11.0,16.0,72,0.00,,,0.00,251.0,meteohub,2013-01-31 19:02:00,
2013-01-31 13:07:00,-5.4,-12.1,30.36,WNW,286,5.0,15.0,72,0.00,,,0.00,348.0,meteohub,2013-01-31 19:07:00,
2013-01-31 13:12:00,-5.3,-11.4,30.36,WSW,246,5.0,19.0,74,0.00,,,0.00,325.0,meteohub,2013-01-31 19:12:00,
2013-01-31 13:17:00,-5.4,-11.6,30.36,West,265,6.0,19.0,74,0.00,,,0.00,339.0,meteohub,2013-01-31 19:17:00,
2013-01-31 13:22:00,-5.3,-11.4,30.36,West,269,9.0,19.0,74,0.00,,,0.00,301.0,meteohub,2013-01-31 19:22:00,
2013-01-31 13:27:00,-5.1,-10.7,30.37,West,267,7.0,14.0,76,0.00,,,0.00,195.0,meteohub,2013-01-31 19:27:00,
2013-01-31 13:32:00,-4.5,-10.1,30.37,NW,324,4.0,13.0,76,0.00,,,0.00,299.0,meteohub,2013-01-31 19:32:00,
2013-01-31 13:37:00,-5.1,-11.2,30.37,WSW,258,16.0,16.0,74,0.00,,,0.00,290.0,meteohub,2013-01-31 19:37:00,
2013-01-31 13:42:00,-5.4,-11.6,30.38,WSW,258,9.0,16.0,74,0.00,,,0.00,202.0,meteohub,2013-01-31 19:42:00,
2013-01-31 13:47:00,-5.4,-11.6,30.38,WNW,285,5.0,16.0,74,0.00,,,0.00,243.0,meteohub,2013-01-31 19:47:00,
2013-01-31 13:52:00,-5.1,-11.0,30.38,WNW,290,4.0,16.0,75,0.00,,,0.00,181.0,meteohub,2013-01-31 19:52:00,
2013-01-31 13:57:00,-4.7,-10.7,30.38,West,280,7.0,14.0,75,0.00,,,0.00,348.0,meteohub,2013-01-31 19:57:00,
2013-01-31 14:02:00,-5.1,-11.2,30.38,West,259,9.0,13.0,74,0.00,,,0.00,281.0,meteohub,2013-01-31 20:02:00,
2013-01-31 14:07:00,-5.4,-11.6,30.38,West,261,8.0,15.0,74,0.00,,,0.00,272.0,meteohub,2013-01-31 20:07:00,
2013-01-31 14:12:00,-5.3,-11.4,30.38,West,262,9.0,15.0,74,0.00,,,0.00,316.0,meteohub,2013-01-31 20:12:00,
2013-01-31 14:17:00,-5.3,-11.4,30.38,West,260,13.0,15.0,74,0.00,,,0.00,267.0,meteohub,2013-01-31 20:17:00,
2013-01-31 14:22:00,-5.3,-11.2,30.38,WNW,288,6.0,15.0,75,0.00,,,0.00,260.0,meteohub,2013-01-31 20:22:00,
2013-01-31 14:27:00,-5.3,-11.2,30.39,West,269,8.0,15.0,75,0.00,,,0.00,264.0,meteohub,2013-01-31 20:27:00,
2013-01-31 14:32:00,-5.4,-11.9,30.38,West,269,8.0,19.0,73,0.00,,,0.00,221.0,meteohub,2013-01-31 20:32:00,
2013-01-31 14:37:00,-5.1,-11.2,30.38,WSW,249,8.0,19.0,74,0.00,,,0.00,146.0,meteohub,2013-01-31 20:37:00,
2013-01-31 14:42:00,-5.1,-11.2,30.38,WSW,237,9.0,19.0,74,0.00,,,0.00,229.0,meteohub,2013-01-31 20:42:00,
2013-01-31 14:47:00,-5.3,-11.7,30.39,West,269,9.0,17.0,73,0.00,,,0.00,230.0,meteohub,2013-01-31 20:47:00,
2013-01-31 14:52:00,-5.1,-11.2,30.39,West,272,6.0,17.0,74,0.00,,,0.00,114.0,meteohub,2013-01-31 20:52:00,
2013-01-31 14:57:00,-5.3,-11.7,30.39,West,268,9.0,17.0,73,0.00,,,0.00,190.0,meteohub,2013-01-31 20:57:00,
2013-01-31 15:02:00,-5.3,-11.7,30.39,West,268,11.0,15.0,73,0.00,,,0.00,148.0,meteohub,2013-01-31 21:02:00,
2013-01-31 15:07:00,-5.3,-11.4,30.40,North,355,3.0,15.0,74,0.00,,,0.00,141.0,meteohub,2013-01-31 21:07:00,
2013-01-31 15:12:00,-5.4,-11.6,30.40,West,262,6.0,14.0,74,0.00,,,0.00,156.0,meteohub,2013-01-31 21:12:00,
2013-01-31 15:17:00,-5.3,-11.4,30.40,West,268,9.0,15.0,74,0.00,,,0.00,109.0,meteohub,2013-01-31 21:17:00,
2013-01-31 15:22:00,-5.3,-11.4,30.40,West,260,11.0,15.0,74,0.00,,,0.00,120.0,meteohub,2013-01-31 21:22:00,
2013-01-31 15:27:00,-5.3,-11.4,30.40,West,260,4.0,16.0,74,0.00,,,0.00,142.0,meteohub,2013-01-31 21:27:00,
2013-01-31 15:32:00,-4.9,-10.8,30.41,West,263,6.0,16.0,75,0.00,,,0.00,97.0,meteohub,2013-01-31 21:32:00,
2013-01-31 15:37:00,-5.3,-11.4,30.41,WNW,287,8.0,16.0,74,0.00,,,0.00,98.0,meteohub,2013-01-31 21:37:00,
2013-01-31 15:42:00,-5.3,-11.4,30.41,WNW,302,4.0,16.0,74,0.00,,,0.00,111.0,meteohub,2013-01-31 21:42:00,
2013-01-31 15:47:00,-5.1,-11.0,30.41,West,274,7.0,16.0,75,0.00,,,0.00,90.0,meteohub,2013-01-31 21:47:00,
2013-01-31 15:52:00,-5.1,-11.0,30.41,West,260,6.0,17.0,75,0.00,,,0.00,74.0,meteohub,2013-01-31 21:52:00,
2013-01-31 15:57:00,-5.1,-11.2,30.42,WNW,283,7.0,17.0,74,0.00,,,0.00,63.0,meteohub,2013-01-31 21:57:00,
2013-01-31 16:02:00,-5.1,-11.2,30.41,West,267,8.0,17.0,74,0.00,,,0.00,58.0,meteohub,2013-01-31 22:02:00,
2013-01-31 16:07:00,-5.1,-11.2,30.42,West,269,4.0,16.0,74,0.00,,,0.00,88.0,meteohub,2013-01-31 22:07:00,
2013-01-31 16:12:00,-5.1,-11.0,30.42,WSW,255,9.0,14.0,75,0.00,,,0.00,39.0,meteohub,2013-01-31 22:12:00,
2013-01-31 16:17:00,-5.3,-11.7,30.42,West,272,9.0,14.0,73,0.00,,,0.00,42.0,meteohub,2013-01-31 22:17:00,
2013-01-31 16:22:00,-5.3,-11.7,30.42,West,267,4.0,12.0,73,0.00,,,0.00,49.0,meteohub,2013-01-31 22:22:00,
2013-01-31 16:27:00,-5.4,-11.9,30.43,West,266,11.0,13.0,73,0.00,,,0.00,39.0,meteohub,2013-01-31 22:27:00,
2013-01-31 16:32:00,-5.6,-12.1,30.43,West,263,6.0,17.0,73,0.00,,,0.00,35.0,meteohub,2013-01-31 22:32:00,
2013-01-31 16:37:00,-5.6,-11.7,30.43,West,278,6.0,17.0,74,0.00,,,0.00,33.0,meteohub,2013-01-31 22:37:00,
2013-01-31 16:42:00,-5.6,-11.7,30.43,West,270,4.0,17.0,74,0.00,,,0.00,35.0,meteohub,2013-01-31 22:42:00,
2013-01-31 16:47:00,-5.6,-11.7,30.43,WNW,282,8.0,13.0,74,0.00,,,0.00,26.0,meteohub,2013-01-31 22:47:00,
2013-01-31 16:52:00,-5.8,-11.9,30.44,WSW,253,13.0,13.0,74,0.00,,,0.00,21.0,meteohub,2013-01-31 22:52:00,
2013-01-31 16:57:00,-5.8,-12.3,30.44,West,263,5.0,13.0,73,0.00,,,0.00,19.0,meteohub,2013-01-31 22:57:00,
2013-01-31 17:02:00,-6.0,-12.5,30.44,West,277,3.0,13.0,73,0.00,,,0.00,21.0,meteohub,2013-01-31 23:02:00,
2013-01-31 17:07:00,-6.2,-12.3,30.44,West,267,5.0,13.0,74,0.00,,,0.00,16.0,meteohub,2013-01-31 23:07:00,
2013-01-31 17:12:00,-6.2,-12.3,30.44,WNW,284,8.0,10.0,74,0.00,,,0.00,14.0,meteohub,2013-01-31 23:12:00,
2013-01-31 17:17:00,-6.3,-12.5,30.44,West,265,7.0,10.0,74,0.00,,,0.00,9.0,meteohub,2013-01-31 23:17:00,
2013-01-31 17:22:00,-6.3,-12.5,30.44,West,269,4.0,11.0,74,0.00,,,0.00,7.0,meteohub,2013-01-31 23:22:00,
2013-01-31 17:27:00,-6.5,-12.6,30.44,WSW,257,7.0,11.0,74,0.00,,,0.00,5.0,meteohub,2013-01-31 23:27:00,
2013-01-31 17:32:00,-6.5,-12.3,30.44,WSW,242,8.0,11.0,75,0.00,,,0.00,0.0,meteohub,2013-01-31 23:32:00,
2013-01-31 17:37:00,-6.7,-12.5,30.44,West,275,5.0,13.0,75,0.00,,,0.00,0.0,meteohub,2013-01-31 23:37:00,
2013-01-31 17:42:00,-6.7,-12.8,30.44,WNW,287,5.0,13.0,74,0.00,,,0.00,0.0,meteohub,2013-01-31 23:42:00,
2013-01-31 17:47:00,-6.7,-12.8,30.44,West,262,8.0,13.0,74,0.00,,,0.00,0.0,meteohub,2013-01-31 23:47:00,
2013-01-31 17:52:00,-6.9,-13.0,30.44,West,269,5.0,11.0,74,0.00,,,0.00,0.0,meteohub,2013-01-31 23:52:00,
2013-01-31 17:57:00,-6.9,-13.0,30.44,WNW,286,4.0,11.0,74,0.00,,,0.00,0.0,meteohub,2013-01-31 23:57:00,
2013-01-31 18:02:00,-6.9,-13.0,30.44,West,271,5.0,11.0,74,0.00,,,0.00,0.0,meteohub,2013-02-01 00:02:00,
2013-01-31 18:07:00,-6.9,-13.0,30.44,West,277,7.0,10.0,74,0.00,,,0.00,0.0,meteohub,2013-02-01 00:07:00,
2013-01-31 18:12:00,-7.1,-13.2,30.44,SW,236,4.0,9.0,74,0.00,,,0.00,0.0,meteohub,2013-02-01 00:12:00,
2013-01-31 18:17:00,-7.1,-13.2,30.45,WSW,246,5.0,10.0,74,0.00,,,0.00,0.0,meteohub,2013-02-01 00:17:00,
2013-01-31 18:22:00,-7.1,-12.8,30.45,WNW,286,2.0,10.0,75,0.00,,,0.00,0.0,meteohub,2013-02-01 00:22:00,
2013-01-31 18:27:00,-7.1,-12.6,30.45,WNW,292,2.0,10.0,76,0.00,,,0.00,0.0,meteohub,2013-02-01 00:27:00,
2013-01-31 18:32:00,-7.1,-12.6,30.45,West,277,3.0,9.0,76,0.00,,,0.00,0.0,meteohub,2013-02-01 00:32:00,
2013-01-31 18:37:00,-7.1,-12.6,30.45,West,273,3.0,9.0,76,0.00,,,0.00,0.0,meteohub,2013-02-01 00:37:00,
2013-01-31 18:42:00,-7.1,-12.6,30.45,West,273,4.0,9.0,76,0.00,,,0.00,0.0,meteohub,2013-02-01 00:42:00,
2013-01-31 18:47:00,-7.2,-12.8,30.46,West,276,4.0,8.0,76,0.00,,,0.00,0.0,meteohub,2013-02-01 00:47:00,
2013-01-31 18:52:00,-7.2,-12.8,30.46,West,281,3.0,8.0,76,0.00,,,0.00,0.0,meteohub,2013-02-01 00:52:00,
2013-01-31 18:57:00,-7.2,-12.8,30.46,WSW,249,5.0,9.0,76,0.00,,,0.00,0.0,meteohub,2013-02-01 00:57:00,
2013-01-31 19:02:00,-7.2,-12.8,30.46,WSW,258,7.0,10.0,76,0.00,,,0.00,0.0,meteohub,2013-02-01 01:02:00,
2013-01-31 19:07:00,-7.2,-12.8,30.46,NW,311,5.0,10.0,76,0.00,,,0.00,0.0,meteohub,2013-02-01 01:07:00,
2013-01-31 19:12:00,-7.4,-13.2,30.46,WSW,248,4.0,10.0,75,0.00,,,0.00,0.0,meteohub,2013-02-01 01:12:00,
2013-01-31 19:17:00,-7.6,-13.4,30.47,West,262,5.0,10.0,75,0.00,,,0.00,0.0,meteohub,2013-02-01 01:17:00,
2013-01-31 19:22:00,-7.6,-13.4,30.46,West,261,3.0,10.0,75,0.00,,,0.00,0.0,meteohub,2013-02-01 01:22:00,
2013-01-31 19:27:00,-7.8,-13.5,30.46,WNW,295,2.0,9.0,75,0.00,,,0.00,0.0,meteohub,2013-02-01 01:27:00,
2013-01-31 19:32:00,-7.8,-13.9,30.47,West,267,5.0,12.0,74,0.00,,,0.00,0.0,meteohub,2013-02-01 01:32:00,
2013-01-31 19:37:00,-7.8,-13.9,30.47,WSW,239,1.0,12.0,74,0.00,,,0.00,0.0,meteohub,2013-02-01 01:37:00,
2013-01-31 19:42:00,-8.0,-14.1,30.47,WSW,246,5.0,11.0,74,0.00,,,0.00,0.0,meteohub,2013-02-01 01:42:00,
2013-01-31 19:48:00,-8.0,-14.1,30.47,WSW,254,4.0,12.0,74,0.00,,,0.00,0.0,meteohub,2013-02-01 01:48:00,
2013-01-31 19:52:00,-8.0,-14.1,30.47,West,262,7.0,12.0,74,0.00,,,0.00,0.0,meteohub,2013-02-01 01:52:00,
2013-01-31 19:58:00,-8.0,-14.1,30.47,WSW,248,4.0,10.0,74,0.00,,,0.00,0.0,meteohub,2013-02-01 01:58:00,
2013-01-31 20:03:00,-8.1,-14.3,30.47,West,269,4.0,10.0,74,0.00,,,0.00,0.0,meteohub,2013-02-01 02:03:00,
2013-01-31 20:08:00,-8.1,-14.3,30.47,SW,233,5.0,10.0,74,0.00,,,0.00,0.0,meteohub,2013-02-01 02:08:00,
2013-01-31 20:13:00,-8.1,-14.3,30.47,West,260,3.0,10.0,74,0.00,,,0.00,0.0,meteohub,2013-02-01 02:13:00,
2013-01-31 20:18:00,-8.3,-14.4,30.47,West,268,4.0,10.0,74,0.00,,,0.00,0.0,meteohub,2013-02-01 02:18:00,
2013-01-31 20:23:00,-8.3,-14.4,30.47,West,262,5.0,10.0,74,0.00,,,0.00,0.0,meteohub,2013-02-01 02:23:00,
2013-01-31 20:28:00,-8.5,-14.6,30.48,West,259,4.0,8.0,74,0.00,,,0.00,0.0,meteohub,2013-02-01 02:28:00,
2013-01-31 20:33:00,-8.5,-14.6,30.47,WSW,251,4.0,8.0,74,0.00,,,0.00,0.0,meteohub,2013-02-01 02:33:00,
2013-01-31 20:38:00,-8.7,-14.8,30.48,WSW,258,5.0,8.0,74,0.00,,,0.00,0.0,meteohub,2013-02-01 02:38:00,
2013-01-31 20:43:00,-8.7,-14.8,30.48,West,271,6.0,8.0,74,0.00,,,0.00,0.0,meteohub,2013-02-01 02:43:00,
2013-01-31 20:48:00,-8.7,-14.8,30.48,West,277,6.0,8.0,74,0.00,,,0.00,0.0,meteohub,2013-02-01 02:48:00,
2013-01-31 20:53:00,-8.7,-14.8,30.48,West,266,4.0,8.0,74,0.00,,,0.00,0.0,meteohub,2013-02-01 02:53:00,
2013-01-31 20:58:00,-8.9,-15.0,30.48,WSW,245,5.0,8.0,74,0.00,,,0.00,0.0,meteohub,2013-02-01 02:58:00,
2013-01-31 21:03:00,-8.9,-15.0,30.48,West,263,4.0,8.0,74,0.00,,,0.00,0.0,meteohub,2013-02-01 03:03:00,
2013-01-31 21:08:00,-8.9,-15.0,30.48,WNW,283,5.0,8.0,74,0.00,,,0.00,0.0,meteohub,2013-02-01 03:08:00,
2013-01-31 21:13:00,-9.0,-14.8,30.48,West,259,4.0,8.0,75,0.00,,,0.00,0.0,meteohub,2013-02-01 03:13:00,
2013-01-31 21:18:00,-9.0,-14.8,30.48,West,267,4.0,7.0,75,0.00,,,0.00,0.0,meteohub,2013-02-01 03:18:00,
2013-01-31 21:23:00,-9.0,-14.8,30.49,WSW,256,3.0,7.0,75,0.00,,,0.00,0.0,meteohub,2013-02-01 03:23:00,
2013-01-31 21:28:00,-9.2,-15.0,30.49,West,272,4.0,7.0,75,0.00,,,0.00,0.0,meteohub,2013-02-01 03:28:00,
2013-01-31 21:33:00,-9.2,-15.0,30.49,WSW,246,4.0,7.0,75,0.00,,,0.00,0.0,meteohub,2013-02-01 03:33:00,
2013-01-31 21:38:00,-9.4,-15.2,30.49,West,259,3.0,6.0,75,0.00,,,0.00,0.0,meteohub,2013-02-01 03:38:00,
2013-01-31 21:43:00,-9.6,-15.3,30.49,West,270,4.0,6.0,75,0.00,,,0.00,0.0,meteohub,2013-02-01 03:43:00,
2013-01-31 21:48:00,-9.6,-15.3,30.49,West,261,3.0,6.0,75,0.00,,,0.00,0.0,meteohub,2013-02-01 03:48:00,
2013-01-31 21:53:00,-9.8,-15.5,30.49,West,274,3.0,5.0,75,0.00,,,0.00,0.0,meteohub,2013-02-01 03:53:00,
2013-01-31 21:58:00,-9.8,-15.2,30.49,West,261,2.0,5.0,76,0.00,,,0.00,0.0,meteohub,2013-02-01 03:58:00,
2013-01-31 22:03:00,-9.9,-15.3,30.49,West,264,3.0,5.0,76,0.00,,,0.00,0.0,meteohub,2013-02-01 04:03:00,
2013-01-31 22:08:00,-9.9,-15.3,30.49,WSW,254,4.0,5.0,76,0.00,,,0.00,0.0,meteohub,2013-02-01 04:08:00,
2013-01-31 22:13:00,-9.9,-15.3,30.49,WSW,257,4.0,5.0,76,0.00,,,0.00,0.0,meteohub,2013-02-01 04:13:00,
2013-01-31 22:18:00,-9.9,-15.3,30.49,West,269,4.0,7.0,76,0.00,,,0.00,0.0,meteohub,2013-02-01 04:18:00,
2013-01-31 22:23:00,-9.9,-15.3,30.49,West,268,3.0,7.0,76,0.00,,,0.00,0.0,meteohub,2013-02-01 04:23:00,
2013-01-31 22:28:00,-10.1,-15.5,30.49,WSW,257,3.0,7.0,76,0.00,,,0.00,0.0,meteohub,2013-02-01 04:28:00,
2013-01-31 22:33:00,-10.1,-15.5,30.49,WSW,238,3.0,6.0,76,0.00,,,0.00,0.0,meteohub,2013-02-01 04:33:00,
2013-01-31 22:38:00,-10.1,-15.5,30.49,West,270,2.0,6.0,76,0.00,,,0.00,0.0,meteohub,2013-02-01 04:38:00,
2013-01-31 22:43:00,-10.1,-15.5,30.49,West,279,2.0,6.0,76,0.00,,,0.00,0.0,meteohub,2013-02-01 04:43:00,
2013-01-31 22:48:00,-10.3,-15.7,30.49,West,265,2.0,5.0,76,0.00,,,0.00,0.0,meteohub,2013-02-01 04:48:00,
2013-01-31 22:53:00,-10.5,-15.9,30.49,West,265,3.0,4.0,76,0.00,,,0.00,0.0,meteohub,2013-02-01 04:53:00,
2013-01-31 22:58:00,-10.5,-15.9,30.49,West,278,3.0,6.0,76,0.00,,,0.00,0.0,meteohub,2013-02-01 04:58:00,
2013-01-31 23:00:00,-10.5,-15.9,30.49,West,274,3.0,6.0,76,0.00,,,0.00,0.0,meteohub,2013-02-01 05:00:00,
2013-01-31 23:02:00,-10.5,-15.9,30.49,WSW,257,3.0,6.0,76,0.00,,,0.00,0.0,meteohub,2013-02-01 05:02:00,
2013-01-31 23:03:00,-10.5,-15.9,30.49,West,262,3.0,6.0,76,0.00,,,0.00,0.0,meteohub,2013-02-01 05:03:00,
2013-01-31 23:08:00,-10.5,-15.9,30.49,WSW,257,2.0,6.0,76,0.00,,,0.00,0.0,meteohub,2013-02-01 05:08:00,
2013-01-31 23:13:00,-10.5,-15.9,30.49,West,272,3.0,4.0,76,0.00,,,0.00,0.0,meteohub,2013-02-01 05:13:00,
2013-01-31 23:18:00,-10.5,-15.9,30.49,West,266,2.0,5.0,76,0.00,,,0.00,0.0,meteohub,2013-02-01 05:18:00,
2013-01-31 23:23:00,-10.7,-16.1,30.49,West,262,1.0,5.0,76,0.00,,,0.00,0.0,meteohub,2013-02-01 05:23:00,
2013-01-31 23:28:00,-10.7,-16.1,30.48,West,274,3.0,4.0,76,0.00,,,0.00,0.0,meteohub,2013-02-01 05:28:00,
2013-01-31 23:33:00,-10.7,-16.1,30.48,West,267,3.0,4.0,76,0.00,,,0.00,0.0,meteohub,2013-02-01 05:33:00,
2013-01-31 23:38:00,-10.7,-16.1,30.48,West,273,2.0,6.0,76,0.00,,,0.00,0.0,meteohub,2013-02-01 05:38:00,
2013-01-31 23:43:00,-10.7,-16.1,30.48,West,263,2.0,6.0,76,0.00,,,0.00,0.0,meteohub,2013-02-01 05:43:00,
2013-01-31 23:48:00,-10.7,-16.1,30.48,West,269,1.0,4.0,76,0.00,,,0.00,0.0,meteohub,2013-02-01 05:48:00,
2013-01-31 23:53:00,-10.7,-16.1,30.48,West,259,2.0,4.0,76,0.00,,,0.00,0.0,meteohub,2013-02-01 05:53:00,
2013-01-31 23:58:00,-10.8,-16.2,30.48,West,259,2.0,4.0,76,0.00,,,0.00,0.0,meteohub,2013-02-01 05:58:00,